Weimar, Texas
Current Conditions -  °F | °C
As of 11:55 AM on Thursday 23 Oct 2014 (Local Time) from K66R Reporting Station
Clear Clear  
Wind Chill: 73°   Ceiling: Unl
Heat Index: 73°   Visibility: 10mi
Dew Point: 58°   Wind: 5mph
Humidity: 60%   Direction: 100°E
Pressure: 30.14"   Gusts: NA
Location:  29.7°N, 96.78°W
Report Text: K66R 231655Z AUTO 10004KT 10SM CLR 23/14 A3014 RMK AO2 T02250143
Loading
Personal Weather Stations






























Interactive Weather Map New forecast layout! Learn more

10-Day Weather Forecast

Advertisements
Track Severe Weather on mobile